createdAt,value
2022-09-21T00:01:23.880Z,13.07
2022-09-21T00:03:55.041Z,12.82
2022-09-21T00:06:24.225Z,13.05
2022-09-21T00:08:52.452Z,11.63
2022-09-21T00:11:24.888Z,13.10
2022-09-21T00:13:55.328Z,13.15
2022-09-21T00:16:24.295Z,15.38
2022-09-21T00:18:54.059Z,14.00
2022-09-21T00:21:22.333Z,13.57
2022-09-21T00:23:50.297Z,13.02
2022-09-21T00:26:20.530Z,13.35
2022-09-21T00:28:49.347Z,11.82
2022-09-21T00:31:18.237Z,11.50
2022-09-21T00:33:46.871Z,12.77
2022-09-21T00:36:17.692Z,12.85
2022-09-21T00:38:46.539Z,12.13
2022-09-21T00:41:14.899Z,12.18
2022-09-21T00:43:47.110Z,12.10
2022-09-21T00:48:45.998Z,10.25
2022-09-21T00:51:14.875Z,9.75
2022-09-21T00:53:44.375Z,10.80
2022-09-21T00:56:13.258Z,9.88
2022-09-21T00:58:46.177Z,10.55
2022-09-21T01:01:16.226Z,10.95
2022-09-21T01:03:45.805Z,9.77
2022-09-21T01:06:14.560Z,10.00
2022-09-21T01:08:44.071Z,10.05
2022-09-21T01:11:25.542Z,10.07
2022-09-21T01:14:08.104Z,9.15
2022-09-21T01:19:15.234Z,11.38
2022-09-21T01:21:51.918Z,11.10
2022-09-21T01:24:42.791Z,10.90
2022-09-21T01:27:46.896Z,10.23
2022-09-21T01:30:18.281Z,11.00
2022-09-21T01:32:48.972Z,10.98
2022-09-21T01:35:20.299Z,10.77
2022-09-21T01:37:51.030Z,11.73
2022-09-21T01:40:22.030Z,11.50
2022-09-21T01:42:51.627Z,11.40
2022-09-21T01:45:24.985Z,10.40
2022-09-21T01:47:53.232Z,10.65
2022-09-21T01:50:21.878Z,9.63
2022-09-21T01:52:53.897Z,9.93
2022-09-21T01:55:27.348Z,11.65
2022-09-21T01:57:59.174Z,11.07
2022-09-21T02:00:29.462Z,10.15
2022-09-21T02:03:01.065Z,11.77
2022-09-21T02:05:30.266Z,11.93
2022-09-21T02:07:59.078Z,14.07
2022-09-21T02:10:29.881Z,14.73
2022-09-21T02:13:01.359Z,12.45
2022-09-21T02:15:35.870Z,12.30
2022-09-21T02:18:07.016Z,11.20
2022-09-21T02:20:38.144Z,11.98
2022-09-21T02:23:12.871Z,11.45
2022-09-21T02:25:47.564Z,11.23
2022-09-21T02:28:24.509Z,10.77
2022-09-21T02:30:59.824Z,10.05
2022-09-21T02:33:31.467Z,10.07
2022-09-21T02:36:04.904Z,10.68
2022-09-21T02:38:36.659Z,11.00
2022-09-21T02:41:09.112Z,11.13
2022-09-21T02:43:40.239Z,10.75
2022-09-21T02:46:12.639Z,11.27
2022-09-21T02:48:44.361Z,10.38
2022-09-21T02:51:14.962Z,12.50
2022-09-21T02:53:43.476Z,11.82
2022-09-21T02:56:11.766Z,10.35
2022-09-21T02:58:41.567Z,10.95
2022-09-21T03:01:13.523Z,11.55
2022-09-21T03:03:42.256Z,10.73
2022-09-21T03:06:10.402Z,10.55
2022-09-21T03:08:38.360Z,9.48
2022-09-21T03:11:06.935Z,9.98
2022-09-21T03:13:36.755Z,10.13
2022-09-21T03:16:07.154Z,9.57
2022-09-21T03:18:36.482Z,10.02
2022-09-21T03:21:04.789Z,8.73
2022-09-21T03:23:32.937Z,10.88
2022-09-21T03:26:00.896Z,10.75
2022-09-21T03:28:28.981Z,10.50
2022-09-21T03:30:57.039Z,9.55
2022-09-21T03:33:26.139Z,10.52
2022-09-21T03:35:55.568Z,9.60
2022-09-21T03:38:24.339Z,8.52
2022-09-21T03:40:52.702Z,8.55
2022-09-21T03:43:20.648Z,8.73
2022-09-21T03:45:49.244Z,9.50
2022-09-21T03:48:17.484Z,8.18
2022-09-21T03:50:45.560Z,11.40
2022-09-21T03:53:15.286Z,9.15
2022-09-21T03:55:43.664Z,8.98
2022-09-21T03:58:11.699Z,8.02
2022-09-21T04:00:40.102Z,8.05
2022-09-21T04:03:08.431Z,7.75
2022-09-21T04:05:36.519Z,8.95
2022-09-21T04:08:04.550Z,8.93
2022-09-21T04:10:33.942Z,8.52
2022-09-21T04:13:02.673Z,9.18
2022-09-21T04:15:31.275Z,9.65
2022-09-21T04:17:59.518Z,53.10
2022-09-21T04:20:27.632Z,26.88
2022-09-21T04:22:55.601Z,18.23
2022-09-21T04:25:23.541Z,9.77
2022-09-21T04:27:53.020Z,8.60
2022-09-21T04:30:21.222Z,8.98
2022-09-21T04:32:49.199Z,7.65
2022-09-21T04:35:17.160Z,8.73
2022-09-21T04:37:45.330Z,9.25
2022-09-21T04:40:13.432Z,8.30
2022-09-21T04:42:41.424Z,8.35
2022-09-21T04:45:12.128Z,7.78
2022-09-21T04:47:40.184Z,8.15
2022-09-21T04:50:09.544Z,8.43
2022-09-21T04:52:37.620Z,8.07
2022-09-21T04:55:06.580Z,8.05
2022-09-21T04:57:35.720Z,9.05
2022-09-21T05:00:05.057Z,9.00
2022-09-21T05:02:34.604Z,8.07
2022-09-21T05:05:02.885Z,8.85
2022-09-21T05:07:30.861Z,8.80
2022-09-21T05:10:03.753Z,9.00
2022-09-21T05:12:31.820Z,9.27
2022-09-21T05:14:59.840Z,10.27
2022-09-21T05:17:28.027Z,10.18
2022-09-21T05:19:57.391Z,11.07
2022-09-21T05:22:25.596Z,11.02
2022-09-21T05:24:53.626Z,10.73
2022-09-21T05:27:21.568Z,10.25
2022-09-21T05:29:50.201Z,9.68
2022-09-21T05:32:23.225Z,9.20
2022-09-21T05:34:57.954Z,10.13
2022-09-21T05:37:40.318Z,9.45
2022-09-21T05:40:11.974Z,8.32
2022-09-21T05:42:40.494Z,8.95
2022-09-21T05:45:10.999Z,8.18
2022-09-21T05:47:41.126Z,6.65
2022-09-21T05:50:34.673Z,4.95
2022-09-21T05:53:14.554Z,5.78
2022-09-21T05:55:50.737Z,5.03
2022-09-21T05:58:22.621Z,4.55
2022-09-21T06:00:58.898Z,4.80
2022-09-21T06:03:29.594Z,4.88
2022-09-21T06:05:59.462Z,3.90
2022-09-21T06:08:27.651Z,4.45
2022-09-21T06:10:56.163Z,3.83
2022-09-21T06:13:24.184Z,4.20
2022-09-21T06:15:52.234Z,4.60
2022-09-21T06:18:20.563Z,3.85
2022-09-21T06:20:48.549Z,3.90
2022-09-21T06:23:17.940Z,4.18
2022-09-21T06:25:45.939Z,4.00
2022-09-21T06:28:14.209Z,3.67
2022-09-21T06:30:45.079Z,4.13
2022-09-21T06:33:13.166Z,3.92
2022-09-21T06:35:41.388Z,3.90
2022-09-21T06:38:09.486Z,3.08
2022-09-21T06:40:38.875Z,4.03
2022-09-21T06:43:07.275Z,4.30
2022-09-21T06:45:35.354Z,4.15
2022-09-21T06:48:03.541Z,4.45
2022-09-21T06:50:31.614Z,4.78
2022-09-21T06:53:01.086Z,4.80
2022-09-21T06:55:29.571Z,5.13
2022-09-21T06:58:02.858Z,5.90
2022-09-21T07:00:31.446Z,5.60
2022-09-21T07:02:59.549Z,5.00
2022-09-21T07:05:27.856Z,6.00
2022-09-21T07:07:58.548Z,6.28
2022-09-21T07:10:26.862Z,6.50
2022-09-21T07:12:54.930Z,5.97
2022-09-21T07:15:25.238Z,5.75
2022-09-21T07:18:04.848Z,5.88
2022-09-21T07:20:33.908Z,6.60
2022-09-21T07:23:01.988Z,6.22
2022-09-21T07:25:30.076Z,6.45
2022-09-21T07:28:01.327Z,5.72
2022-09-21T07:30:30.882Z,5.32
2022-09-21T07:35:53.804Z,8.77
2022-09-21T07:38:21.770Z,6.65
2022-09-21T07:40:52.551Z,5.63
2022-09-21T07:43:20.683Z,5.25
2022-09-21T07:45:56.128Z,4.97
2022-09-21T07:48:24.670Z,4.78
2022-09-21T07:50:52.614Z,3.65
2022-09-21T07:53:21.144Z,4.47
2022-09-21T07:55:49.129Z,3.47
2022-09-21T07:58:35.096Z,3.88
2022-09-21T08:01:07.453Z,3.05
2022-09-21T08:03:35.423Z,3.67
2022-09-21T08:06:04.210Z,4.30
2022-09-21T08:08:32.185Z,3.67
2022-09-21T08:11:04.043Z,4.32
2022-09-21T08:13:32.504Z,4.15
2022-09-21T08:16:01.124Z,4.60
2022-09-21T08:18:30.997Z,5.40
2022-09-21T08:21:00.773Z,4.15
2022-09-21T08:23:29.036Z,3.92
2022-09-21T08:26:00.642Z,4.00
2022-09-21T08:28:29.055Z,4.10
2022-09-21T08:31:00.626Z,3.88
2022-09-21T08:33:32.706Z,4.18
2022-09-21T08:36:01.657Z,4.28
2022-09-21T08:38:34.449Z,3.50
2022-09-21T08:41:03.111Z,4.13
2022-09-21T08:43:34.133Z,3.47
2022-09-21T08:46:05.111Z,3.60
2022-09-21T08:48:40.193Z,3.10
2022-09-21T08:51:10.489Z,3.72
2022-09-21T08:53:40.281Z,3.70
2022-09-21T08:56:10.094Z,3.13
2022-09-21T08:58:40.621Z,3.13
2022-09-21T09:01:24.708Z,3.05
2022-09-21T09:04:15.372Z,3.05
2022-09-21T09:06:50.003Z,2.70
2022-09-21T09:09:30.535Z,3.10
2022-09-21T09:12:12.003Z,2.58
2022-09-21T09:14:54.471Z,2.20
2022-09-21T09:20:01.247Z,2.67
2022-09-21T09:22:33.059Z,2.33
2022-09-21T09:25:04.904Z,2.55
2022-09-21T09:27:36.609Z,2.90
2022-09-21T09:30:06.927Z,2.92
2022-09-21T09:32:38.668Z,2.67
2022-09-21T09:35:18.685Z,2.20
2022-09-21T09:37:48.348Z,2.20
2022-09-21T09:40:17.842Z,2.80
2022-09-21T09:42:54.175Z,2.42
2022-09-21T09:45:36.937Z,2.55
2022-09-21T09:48:16.612Z,2.55
2022-09-21T09:50:46.297Z,2.40
2022-09-21T09:53:16.921Z,3.00
2022-09-21T09:55:46.761Z,1.80
2022-09-21T10:01:37.022Z,2.50
2022-09-21T10:04:09.600Z,2.65
2022-09-21T10:06:43.705Z,2.58
2022-09-21T10:09:21.830Z,2.05
2022-09-21T10:11:49.945Z,2.28
2022-09-21T10:14:20.386Z,2.30
2022-09-21T10:16:51.793Z,2.17
2022-09-21T10:19:22.647Z,2.30
2022-09-21T10:21:57.182Z,2.50
2022-09-21T10:24:26.836Z,2.08
2022-09-21T10:26:56.576Z,2.25
2022-09-21T10:29:32.363Z,2.30
2022-09-21T10:32:01.731Z,2.03
2022-09-21T10:34:31.218Z,1.80
2022-09-21T10:37:02.854Z,2.17
2022-09-21T10:39:31.871Z,1.80
2022-09-21T10:42:02.811Z,2.10
2022-09-21T10:44:37.553Z,1.92
2022-09-21T10:47:22.378Z,1.80
2022-09-21T10:49:53.065Z,1.40
2022-09-21T10:52:25.364Z,1.58
2022-09-21T10:54:56.394Z,1.60
2022-09-21T10:57:26.790Z,1.45
2022-09-21T10:59:55.067Z,1.30
2022-09-21T11:02:46.655Z,0.95
2022-09-21T11:05:16.976Z,1.33
2022-09-21T11:07:52.196Z,1.60
2022-09-21T11:10:23.775Z,1.23
2022-09-21T11:15:58.190Z,1.20
2022-09-21T11:18:35.752Z,1.45
2022-09-21T11:21:07.118Z,1.30
2022-09-21T11:23:45.423Z,1.23
2022-09-21T11:26:16.762Z,0.90
2022-09-21T11:28:49.298Z,1.77
2022-09-21T11:31:42.626Z,0.90
2022-09-21T11:34:28.684Z,1.20
2022-09-21T11:37:09.919Z,1.10
2022-09-21T11:39:50.550Z,1.48
2022-09-21T11:42:33.770Z,1.10
2022-09-21T11:45:03.306Z,1.20
2022-09-21T11:47:54.651Z,1.00
2022-09-21T11:50:42.899Z,1.02
2022-09-21T11:53:34.213Z,0.75
2022-09-21T11:56:45.841Z,0.80
2022-09-21T11:59:40.060Z,0.68
2022-09-21T12:02:23.748Z,0.93
2022-09-21T12:04:55.923Z,0.80
2022-09-21T12:07:34.664Z,1.10
2022-09-21T12:10:17.000Z,0.93
2022-09-21T12:12:50.268Z,0.90
2022-09-21T12:15:22.396Z,1.00
2022-09-21T12:17:57.838Z,1.00
2022-09-21T12:20:33.157Z,0.70
2022-09-21T12:23:03.305Z,0.70
2022-09-21T12:25:36.025Z,0.70
2022-09-21T12:28:09.957Z,0.75
2022-09-21T12:30:39.438Z,0.70
2022-09-21T12:33:12.762Z,0.80
2022-09-21T12:35:44.154Z,0.73
2022-09-21T12:38:16.920Z,0.70
2022-09-21T12:40:49.975Z,0.90
2022-09-21T12:43:28.213Z,0.70
2022-09-21T12:45:59.321Z,0.57
2022-09-21T12:48:33.521Z,0.60
2022-09-21T12:51:06.436Z,0.93
2022-09-21T12:53:37.812Z,0.60
2022-09-21T12:56:09.964Z,0.93
2022-09-21T12:58:52.165Z,0.82
2022-09-21T13:01:27.296Z,0.70
2022-09-21T13:04:10.450Z,0.75
2022-09-21T13:06:53.825Z,0.80
2022-09-21T13:09:22.022Z,0.50
2022-09-21T13:11:54.495Z,0.70
2022-09-21T13:14:24.310Z,0.70
2022-09-21T13:16:57.749Z,0.75
2022-09-21T13:19:29.107Z,0.63
2022-09-21T13:22:23.166Z,0.40
2022-09-21T13:25:08.823Z,0.40
2022-09-21T13:28:04.246Z,0.55
2022-09-21T13:30:36.735Z,0.65
2022-09-21T13:33:09.169Z,0.60
2022-09-21T13:36:02.203Z,0.50
2022-09-21T13:38:34.103Z,0.40
2022-09-21T13:41:03.209Z,0.60
2022-09-21T13:44:04.964Z,0.47
2022-09-21T13:47:01.635Z,0.95
2022-09-21T13:49:59.736Z,0.50
2022-09-21T13:52:32.650Z,0.65
2022-09-21T13:55:01.980Z,0.70
2022-09-21T13:57:34.344Z,0.57
2022-09-21T14:00:09.203Z,0.45
2022-09-21T14:02:41.004Z,0.50
2022-09-21T14:05:21.173Z,0.52
2022-09-21T14:07:56.246Z,0.52
2022-09-21T14:10:24.785Z,0.35
2022-09-21T14:12:53.263Z,0.50
2022-09-21T14:15:40.930Z,0.50
2022-09-21T14:18:20.448Z,0.52
2022-09-21T14:21:17.088Z,0.47
2022-09-21T14:24:09.906Z,0.35
2022-09-21T14:26:50.580Z,0.55
2022-09-21T14:29:22.314Z,0.60
2022-09-21T14:31:51.430Z,0.50
2022-09-21T14:34:24.686Z,1.40
2022-09-21T14:36:55.594Z,0.45
2022-09-21T14:39:27.479Z,0.50
2022-09-21T14:41:58.150Z,0.60
2022-09-21T14:44:30.051Z,0.70
2022-09-21T14:47:08.711Z,0.50
2022-09-21T14:50:04.191Z,0.52
2022-09-21T14:52:42.429Z,0.85
2022-09-21T14:55:17.755Z,0.60
2022-09-21T14:58:09.409Z,0.60
2022-09-21T15:00:39.669Z,0.70
2022-09-21T15:03:26.424Z,0.68
2022-09-21T15:06:28.872Z,0.60
2022-09-21T15:09:27.675Z,0.50
2022-09-21T15:12:00.361Z,0.50
2022-09-21T15:14:34.288Z,0.50
2022-09-21T15:17:20.205Z,0.40
2022-09-21T15:19:50.055Z,0.52
2022-09-21T15:22:20.818Z,0.50
2022-09-21T15:24:52.963Z,0.60
2022-09-21T15:27:23.815Z,0.40
2022-09-21T15:29:53.815Z,0.38
2022-09-21T15:32:27.970Z,0.40
2022-09-21T15:35:01.381Z,0.30
2022-09-21T15:37:36.415Z,0.43
2022-09-21T15:40:15.382Z,0.50
2022-09-21T15:43:01.042Z,0.68
2022-09-21T15:45:30.504Z,0.40
2022-09-21T15:47:58.451Z,0.80
2022-09-21T15:50:27.753Z,0.80
2022-09-21T15:53:00.543Z,0.98
2022-09-21T15:55:29.964Z,0.80
2022-09-21T15:57:58.854Z,0.60
2022-09-21T16:00:28.284Z,0.85
2022-09-21T16:03:04.881Z,0.85
2022-09-21T16:05:35.684Z,1.20
2022-09-21T16:08:28.837Z,1.00
2022-09-21T16:11:15.056Z,1.08
2022-09-21T16:14:01.625Z,0.68
2022-09-21T16:16:29.694Z,0.80
2022-09-21T16:18:59.962Z,0.40
2022-09-21T16:21:30.896Z,0.60
2022-09-21T16:24:09.889Z,0.65
2022-09-21T16:26:39.909Z,0.65
2022-09-21T16:29:19.613Z,0.50
2022-09-21T16:31:50.347Z,0.82
2022-09-21T16:34:26.138Z,0.70
2022-09-21T16:36:54.739Z,0.60
2022-09-21T16:39:24.205Z,0.70
2022-09-21T16:42:00.062Z,0.70
2022-09-21T16:44:31.463Z,0.50
2022-09-21T16:47:00.536Z,0.80
2022-09-21T16:49:31.278Z,0.70
2022-09-21T16:51:59.989Z,2.08
2022-09-21T16:54:29.754Z,1.30
2022-09-21T16:56:59.357Z,1.38
2022-09-21T16:59:28.458Z,1.02
2022-09-21T17:01:59.080Z,1.40
2022-09-21T17:04:28.933Z,0.63
2022-09-21T17:06:57.760Z,0.80
2022-09-21T17:09:29.755Z,0.68
2022-09-21T17:12:01.836Z,0.75
2022-09-21T17:14:32.951Z,0.70
2022-09-21T17:17:01.101Z,1.10
2022-09-21T17:19:29.025Z,0.60
2022-09-21T17:21:56.989Z,0.70
2022-09-21T17:24:48.693Z,0.77
2022-09-21T17:27:17.564Z,0.82
2022-09-21T17:29:47.389Z,0.80
2022-09-21T17:32:16.353Z,0.88
2022-09-21T17:34:46.065Z,0.98
2022-09-21T17:37:14.300Z,0.82
2022-09-21T17:39:44.912Z,0.73
2022-09-21T17:42:19.078Z,0.93
2022-09-21T17:44:55.200Z,0.70
2022-09-21T17:47:27.976Z,1.00
2022-09-21T17:49:57.080Z,2.88
2022-09-21T17:52:39.429Z,3.38
2022-09-21T17:55:09.415Z,4.38
2022-09-21T17:57:48.244Z,3.10
2022-09-21T18:00:21.041Z,2.67
2022-09-21T18:02:49.660Z,1.90
2022-09-21T18:05:26.224Z,1.90
2022-09-21T18:07:54.600Z,1.60
2022-09-21T18:10:25.898Z,2.05
2022-09-21T18:13:08.032Z,2.42
2022-09-21T18:15:44.255Z,2.50
2022-09-21T18:18:19.165Z,2.00
2022-09-21T18:20:57.741Z,2.15
2022-09-21T18:23:32.804Z,1.85
2022-09-21T18:26:01.486Z,1.88
2022-09-21T18:28:39.383Z,1.80
2022-09-21T18:31:36.784Z,1.65
2022-09-21T18:34:18.332Z,1.50
2022-09-21T18:36:51.348Z,1.67
2022-09-21T18:39:25.429Z,1.52
2022-09-21T18:42:05.907Z,1.88
2022-09-21T18:44:39.107Z,2.05
2022-09-21T18:47:11.571Z,2.22
2022-09-21T18:52:39.242Z,2.58
2022-09-21T18:55:17.436Z,2.53
2022-09-21T18:57:46.335Z,2.70
2022-09-21T19:00:17.139Z,3.00
2022-09-21T19:03:05.327Z,3.17
2022-09-21T19:05:34.504Z,3.38
2022-09-21T19:08:09.276Z,3.90
2022-09-21T19:10:38.369Z,4.25
2022-09-21T19:13:16.878Z,4.63
2022-09-21T19:16:00.765Z,6.15
2022-09-21T19:18:37.134Z,5.40
2022-09-21T19:21:16.075Z,6.30
2022-09-21T19:24:02.936Z,15.10
2022-09-21T19:26:37.090Z,9.35
2022-09-21T19:29:21.645Z,7.15
2022-09-21T19:31:51.376Z,6.47
2022-09-21T19:34:20.303Z,6.30
2022-09-21T19:36:48.599Z,5.75
2022-09-21T19:39:17.225Z,6.00
2022-09-21T19:41:54.932Z,4.43
2022-09-21T19:44:35.906Z,4.95
2022-09-21T19:47:12.805Z,4.95
2022-09-21T19:49:48.382Z,4.50
2022-09-21T19:52:18.135Z,5.00
2022-09-21T19:55:04.509Z,4.40
2022-09-21T19:57:51.895Z,30.80
2022-09-21T20:00:22.721Z,8.38
2022-09-21T20:03:01.141Z,6.22
2022-09-21T20:05:35.147Z,6.30
2022-09-21T20:08:06.218Z,6.60
2022-09-21T20:10:51.606Z,7.45
2022-09-21T20:13:31.839Z,8.40
2022-09-21T20:16:03.746Z,7.07
2022-09-21T20:18:53.272Z,6.72
2022-09-21T20:21:23.059Z,6.40
2022-09-21T20:23:58.447Z,6.57
2022-09-21T20:26:28.088Z,6.60
2022-09-21T20:28:56.539Z,6.03
2022-09-21T20:31:25.943Z,6.43
2022-09-21T20:33:55.350Z,7.28
2022-09-21T20:36:23.383Z,7.40
2022-09-21T20:38:51.436Z,7.57
2022-09-21T20:41:19.815Z,7.40
2022-09-21T20:43:47.787Z,7.75
2022-09-21T20:46:15.774Z,7.32
2022-09-21T20:48:43.884Z,7.05
2022-09-21T20:51:13.333Z,7.40
2022-09-21T20:53:41.521Z,7.20
2022-09-21T20:56:09.435Z,7.32
2022-09-21T20:58:37.380Z,6.63
2022-09-21T21:01:06.359Z,6.80
2022-09-21T21:03:34.671Z,7.32
2022-09-21T21:06:10.848Z,7.53
2022-09-21T21:08:40.350Z,6.20
2022-09-21T21:11:10.693Z,6.20
2022-09-21T21:13:38.902Z,5.13
2022-09-21T21:16:11.755Z,5.95
2022-09-21T21:18:40.945Z,5.10
2022-09-21T21:21:09.262Z,6.20
2022-09-21T21:23:57.602Z,7.07
2022-09-21T21:26:50.260Z,6.07
2022-09-21T21:29:14.935Z,6.45
2022-09-21T21:31:43.155Z,5.65
2022-09-21T21:34:11.204Z,6.40
2022-09-21T21:36:39.254Z,5.75
2022-09-21T21:39:07.902Z,6.32
2022-09-21T21:41:37.224Z,6.85
2022-09-21T21:44:05.155Z,6.32
2022-09-21T21:46:33.260Z,6.68
2022-09-21T21:49:01.359Z,7.03
2022-09-21T21:51:29.999Z,7.63
2022-09-21T21:53:58.022Z,6.63
2022-09-21T21:56:26.559Z,6.53
2022-09-21T21:58:56.636Z,6.65
2022-09-21T22:01:27.404Z,7.22
2022-09-21T22:03:56.521Z,7.72
2022-09-21T22:06:24.976Z,7.03
2022-09-21T22:08:53.295Z,6.32
2022-09-21T22:11:22.290Z,6.80
2022-09-21T22:13:50.374Z,5.75
2022-09-21T22:16:22.089Z,6.68
2022-09-21T22:18:51.241Z,7.30
2022-09-21T22:21:22.187Z,7.20
2022-09-21T22:23:53.512Z,7.00
2022-09-21T22:26:22.499Z,7.63
2022-09-21T22:28:52.135Z,6.97
2022-09-21T22:31:22.900Z,6.78
2022-09-21T22:33:50.916Z,6.30
2022-09-21T22:36:20.350Z,5.53
2022-09-21T22:38:49.844Z,6.18
2022-09-21T22:41:19.150Z,5.53
2022-09-21T22:43:48.127Z,5.25
2022-09-21T22:46:17.321Z,5.20
2022-09-21T22:48:47.574Z,4.68
2022-09-21T22:51:17.373Z,4.57
2022-09-21T22:53:46.282Z,4.75
2022-09-21T22:56:15.337Z,4.35
2022-09-21T22:58:44.981Z,4.55
2022-09-21T23:01:15.053Z,4.18
2022-09-21T23:03:43.157Z,4.57
2022-09-21T23:06:13.857Z,3.92
2022-09-21T23:08:41.883Z,4.00
2022-09-21T23:11:11.672Z,4.00
2022-09-21T23:13:39.992Z,4.07
2022-09-21T23:16:11.054Z,4.20
2022-09-21T23:18:40.258Z,3.85
2022-09-21T23:21:09.803Z,3.80
2022-09-21T23:23:39.245Z,3.78
2022-09-21T23:26:09.427Z,3.30
2022-09-21T23:28:38.527Z,3.83
2022-09-21T23:31:08.121Z,3.53
2022-09-21T23:33:37.396Z,4.05
2022-09-21T23:36:06.999Z,3.85
2022-09-21T23:38:35.599Z,3.40
2022-09-21T23:41:08.151Z,3.55
2022-09-21T23:43:37.200Z,3.45
2022-09-21T23:46:06.092Z,3.30
2022-09-21T23:48:34.444Z,3.42
2022-09-21T23:51:02.947Z,3.42
2022-09-21T23:53:31.637Z,3.22
2022-09-21T23:55:59.845Z,4.15
2022-09-21T23:58:29.644Z,3.63
